createdAt,value
2024-01-20T00:22:26.356Z,83.57
2024-01-20T00:28:09.350Z,83.60
2024-01-20T00:34:08.781Z,83.59
2024-01-20T00:39:26.717Z,83.68
2024-01-20T00:44:43.867Z,83.75
2024-01-20T00:50:07.416Z,83.71
2024-01-20T00:55:13.431Z,83.66
2024-01-20T01:00:31.318Z,83.73
2024-01-20T01:05:42.326Z,83.80
2024-01-20T01:11:04.423Z,84.05
2024-01-20T01:17:09.144Z,84.96
2024-01-20T01:22:26.688Z,85.33
2024-01-20T01:27:40.898Z,85.65
2024-01-20T01:32:50.418Z,85.38
2024-01-20T01:38:16.593Z,85.20
2024-01-20T01:43:50.936Z,85.09
2024-01-20T01:49:21.020Z,85.07
2024-01-20T01:54:34.804Z,85.07
2024-01-20T01:59:59.800Z,85.10
2024-01-20T02:05:09.879Z,85.13
2024-01-20T02:10:25.931Z,85.03
2024-01-20T02:15:31.098Z,85.00
2024-01-20T02:21:06.634Z,85.24
2024-01-20T02:26:41.687Z,85.25
2024-01-20T02:32:09.524Z,85.36
2024-01-20T02:37:15.045Z,85.78
2024-01-20T02:42:28.329Z,85.72
2024-01-20T02:48:18.965Z,85.77
2024-01-20T02:54:02.127Z,85.62
2024-01-20T02:59:38.696Z,85.53
2024-01-20T03:04:58.315Z,85.42
2024-01-20T03:10:05.326Z,85.36
2024-01-20T03:16:04.779Z,85.23
2024-01-20T03:21:12.889Z,85.03
2024-01-20T03:26:32.166Z,84.87
2024-01-20T03:32:07.724Z,84.70
2024-01-20T03:37:32.405Z,84.78
2024-01-20T03:43:29.289Z,84.78
2024-01-20T03:48:50.412Z,84.93
2024-01-20T03:59:37.522Z,84.94
2024-01-20T04:05:26.660Z,85.20
2024-01-20T04:10:51.998Z,85.31
2024-01-20T04:16:10.273Z,85.32
2024-01-20T04:21:15.113Z,85.07
2024-01-20T04:26:48.336Z,84.86
2024-01-20T04:31:56.865Z,84.69
2024-01-20T04:37:09.234Z,84.63
2024-01-20T04:42:24.494Z,84.65
2024-01-20T04:47:59.879Z,84.66
2024-01-20T04:53:37.006Z,84.74
2024-01-20T04:58:51.542Z,84.76
2024-01-20T05:04:46.694Z,84.73
2024-01-20T05:10:42.788Z,84.66
2024-01-20T05:16:43.258Z,84.57
2024-01-20T05:21:51.087Z,84.52
2024-01-20T05:26:54.977Z,84.39
2024-01-20T05:32:22.719Z,84.41
2024-01-20T05:37:34.373Z,84.41
2024-01-20T05:42:58.580Z,84.15
2024-01-20T05:48:56.844Z,83.89
2024-01-20T05:54:44.491Z,83.82
2024-01-20T06:00:25.905Z,83.53
2024-01-20T06:05:36.901Z,83.15
2024-01-20T06:10:44.815Z,83.03
2024-01-20T06:15:52.839Z,83.01
2024-01-20T06:22:10.332Z,82.93
2024-01-20T06:27:17.590Z,82.98
2024-01-20T06:32:22.286Z,82.80
2024-01-20T06:38:08.897Z,82.66
2024-01-20T06:43:19.138Z,82.54
2024-01-20T06:48:28.288Z,82.43
2024-01-20T06:53:35.057Z,82.55
2024-01-20T06:58:41.993Z,82.73
2024-01-20T07:04:18.929Z,83.01
2024-01-20T07:09:29.871Z,83.00
2024-01-20T07:14:54.368Z,82.90
2024-01-20T07:20:25.411Z,83.02
2024-01-20T07:26:10.182Z,83.02
2024-01-20T07:32:15.786Z,82.91
2024-01-20T07:37:45.629Z,82.93
2024-01-20T07:43:36.208Z,83.04
2024-01-20T07:48:48.561Z,82.92
2024-01-20T07:54:17.760Z,82.66
2024-01-20T07:59:32.926Z,82.43
2024-01-20T08:04:43.537Z,82.28
2024-01-20T08:10:18.022Z,82.05
2024-01-20T08:16:08.728Z,81.56
2024-01-20T08:21:24.057Z,80.79
2024-01-20T08:26:57.095Z,79.84
2024-01-20T08:32:44.069Z,78.65
2024-01-20T08:38:22.623Z,77.16
2024-01-20T08:43:48.750Z,74.06
2024-01-20T08:48:54.189Z,74.21
2024-01-20T08:54:02.100Z,70.83
2024-01-20T08:59:36.359Z,70.15
2024-01-20T09:04:44.510Z,70.23
2024-01-20T09:10:16.132Z,70.87
2024-01-20T09:16:02.193Z,69.69
2024-01-20T09:21:29.774Z,70.51
2024-01-20T09:26:45.934Z,69.85
2024-01-20T09:31:51.570Z,70.26
2024-01-20T09:37:25.949Z,69.94
2024-01-20T09:43:04.036Z,69.95
2024-01-20T09:48:58.971Z,70.21
2024-01-20T09:54:07.897Z,70.75
2024-01-20T09:59:31.777Z,70.98
2024-01-20T10:04:48.988Z,70.93
2024-01-20T10:10:00.712Z,70.53
2024-01-20T10:15:35.529Z,70.84
2024-01-20T10:21:07.705Z,70.18
2024-01-20T10:26:27.936Z,70.68
2024-01-20T10:32:16.643Z,70.28
2024-01-20T10:37:24.308Z,69.51
2024-01-20T10:42:36.213Z,70.24
2024-01-20T10:48:13.692Z,69.35
2024-01-20T10:53:49.510Z,68.40
2024-01-20T10:59:17.107Z,68.25
2024-01-20T11:04:47.105Z,67.87
2024-01-20T11:10:27.205Z,67.83
2024-01-20T11:16:06.971Z,67.47
2024-01-20T11:21:27.228Z,67.55
2024-01-20T11:26:41.093Z,66.70
2024-01-20T11:32:42.072Z,67.04
2024-01-20T12:38:15.557Z,66.51
2024-01-20T12:44:03.055Z,66.81
2024-01-20T12:50:17.785Z,66.89
2024-01-20T12:56:03.766Z,67.19
2024-01-20T13:01:35.563Z,67.95
2024-01-20T13:06:55.447Z,67.74
2024-01-20T13:12:15.389Z,67.38
2024-01-20T13:18:12.194Z,67.90
2024-01-20T14:03:59.115Z,67.61
2024-01-20T14:09:14.566Z,68.26
2024-01-20T14:14:20.005Z,68.68
2024-01-20T14:19:51.391Z,68.66
2024-01-20T14:25:25.548Z,69.00
2024-01-20T14:31:14.258Z,68.96
2024-01-20T14:37:08.441Z,69.22
2024-01-20T14:42:53.507Z,69.57
2024-01-20T14:48:16.846Z,69.80
2024-01-20T14:54:08.020Z,69.86
2024-01-20T15:00:06.741Z,70.43
2024-01-20T15:05:40.056Z,70.78
2024-01-20T15:10:51.452Z,71.19
2024-01-20T15:16:28.330Z,71.54
2024-01-20T15:21:57.426Z,71.73
2024-01-20T15:27:05.226Z,71.96
2024-01-20T15:32:34.941Z,72.24
2024-01-20T15:38:15.709Z,72.57
2024-01-20T15:44:33.515Z,72.66
2024-01-20T15:50:10.649Z,73.13
2024-01-20T15:55:51.434Z,73.31
2024-01-20T16:01:22.036Z,73.52
2024-01-20T16:07:27.032Z,73.84
2024-01-20T16:13:32.777Z,74.29
2024-01-20T16:19:30.674Z,74.29
2024-01-20T17:18:35.290Z,76.13
2024-01-20T17:24:02.476Z,76.20
2024-01-20T17:29:48.562Z,76.36
2024-01-20T17:35:23.481Z,76.13
2024-01-20T17:41:31.195Z,76.07
2024-01-20T18:00:27.161Z,76.53
2024-01-20T18:06:45.360Z,77.08
2024-01-20T18:12:48.698Z,76.88
2024-01-20T18:18:17.400Z,76.48
2024-01-20T18:24:26.824Z,76.20
2024-01-20T18:30:12.135Z,76.08
2024-01-20T18:36:13.265Z,76.35
2024-01-20T18:42:23.214Z,76.32
2024-01-20T18:48:43.873Z,76.32
2024-01-20T18:55:14.011Z,76.18
2024-01-20T19:01:28.430Z,76.26
2024-01-20T19:45:23.498Z,74.19
2024-01-20T19:51:49.584Z,74.52
2024-01-20T20:28:24.604Z,74.29
2024-01-20T20:33:51.477Z,74.34
2024-01-20T20:40:07.164Z,74.45
2024-01-20T20:45:35.807Z,74.48
2024-01-20T20:50:52.135Z,74.49
2024-01-20T20:56:01.224Z,74.26
2024-01-20T21:01:10.388Z,74.35
2024-01-20T21:07:11.660Z,74.69
2024-01-20T21:13:06.439Z,74.38
2024-01-20T21:18:19.840Z,74.09
2024-01-20T21:23:47.022Z,74.01
2024-01-20T21:30:00.773Z,73.94
2024-01-20T21:35:25.919Z,73.96
2024-01-20T21:41:01.100Z,73.84
2024-01-20T21:46:20.818Z,74.30
2024-01-20T21:52:36.577Z,74.11
2024-01-20T21:57:47.439Z,73.79
2024-01-20T22:03:10.847Z,73.68
2024-01-20T22:08:37.410Z,73.48
2024-01-20T22:14:30.753Z,73.30
2024-01-20T22:20:43.232Z,73.26
2024-01-20T22:33:04.056Z,73.36
2024-01-20T22:38:30.912Z,73.15
2024-01-20T22:43:39.876Z,73.21
2024-01-20T22:49:08.796Z,73.21
2024-01-20T23:00:52.217Z,73.63
2024-01-20T23:06:57.428Z,73.58
2024-01-20T23:12:33.582Z,73.67
2024-01-20T23:17:57.191Z,73.86
2024-01-20T23:23:08.645Z,73.79
2024-01-20T23:28:47.401Z,73.75
2024-01-20T23:34:19.714Z,73.56
2024-01-20T23:40:07.942Z,73.51
2024-01-20T23:45:29.064Z,73.65
2024-01-20T23:51:18.974Z,73.73
2024-01-20T23:57:07.932Z,73.69
